Tiempo atmosférico en la estación meteorológica de Baza, Granada (801 m.)



Fecha
DESCASC
Temp. máxima en grados centígrados (hora)
DESCASC
Temp. mínima en grados centígrados (hora)
DESCASC
Temp. media en grados centígrados
DESCASC
Racha de viento máxima en m/sg (hora)
DESCASC
Velocidad máxima media en intervalos de 10 minutos(hora)
DESCASC
Precipitaciones diarias en mm
DESCASC
Precipitaciones de 00:00 a 06:00 en mm
DESCASC
Precipitaciones de 06:00 a 12:00 en mm
DESCASC
Precipitaciones de 12:00 a 18:00 en mm
DESCASC
Precipitaciones de 18:00 a 24:00 en mm
DESCASC
20-09-2018 31.6 (16:30) 13.4 (08:10) 22.5 8.33 (17:00) 4.17 (17:00) 0 0 0 0 0
19-09-2018 29.8 (15:00) 14.6 (07:30) 22.2 7.78 (16:20) 4.17 (18:50) 0 0 0 0 0
18-09-2018 29.1 (16:20) 15.1 (05:20) 22.1 6.39 (19:00) 3.89 (19:00) 0 0 0 0 0
17-09-2018 26.2 (14:30) 15.3 (08:10) 20.8 11.11 (14:40) 6.39 (14:00) 0 0 0 0 0
16-09-2018 28.3 (16:40) 13.8 (00:00) 21 8.61 (18:30) 5.28 (18:40) 0.2 0 0 0.2 0
15-09-2018 20.7 (16:00) 16.5 (00:00) 18.6 6.94 (02:10) 3.61 (17:30) 5.4 0 3.4 2 0
14-09-2018 28.2 (16:20) 16 (00:00) 22.1 8.61 (14:30) 5 (14:30) 0 0 0 0 0
13-09-2018 31.2 (17:10) 16.6 (00:00) 23.9 9.72 (18:20) 5.83 (18:20) 0 0 0 0 0
12-09-2018 30 (17:40) 15.5 (00:00) 22.8 6.67 (19:30) 3.89 (19:30) 0 0 0 0 0
11-09-2018 23.8 (16:50) 14.4 (00:00) 19.1 6.67 (17:10) 3.89 (13:40) 0 0 0 0 0
10-09-2018 27 (17:00) 12.6 (00:00) 19.8 8.33 (18:30) 5 (17:30) 0.2 0.2 0 0 0
09-09-2018 18.4 (18:50) 12.5 (00:00) 15.4 7.22 (17:40) 4.17 (16:40) 0.2 0 0 0.2 0
08-09-2018 18.9 (18:40) 13.9 (00:00) 16.4 10.83 (09:40) 6.67 (09:40) 24.8 0 12.4 8.6 3.8
07-09-2018 30.1 (18:00) 13.1 (00:00) 21.6 8.89 (19:50) 5.83 (19:40) 0 0 0 0 0
06-09-2018 29.4 (16:40) 15.2 (00:00) 22.3 7.5 (17:10) 3.89 (19:00) 0 0 0 0 0
05-09-2018 30.5 (16:50) 12.7 (00:00) 21.6 8.61 (19:40) 5.56 (19:00) 0 0 0 0 0
04-09-2018 31.5 (17:00) 14.9 (00:00) 23.2 6.39 (20:20) 4.17 (20:20) 0 0 0 0 0
03-09-2018 32.1 (13:50) 17.5 (00:00) 24.8 18.33 (14:50) 11.67 (14:50) 2.2 0 0 1.8 0.4
02-09-2018 35.6 (17:40) 17.3 (00:00) 26.4 9.17 (19:10) 5.83 (19:10) 0 0 0 0 0
01-09-2018 35.1 (16:10) 16.3 (00:00) 25.7 9.72 (19:10) 5.83 (19:10) 0 0 0 0 0
31-08-2018 34.9 (16:50) 14.5 (00:00) 24.7 10 (17:50) 5.83 (19:30) 0 0 0 0 0
30-08-2018 32.4 (15:10) 16.5 (00:00) 24.5 8.61 (14:40) 5 (15:00) -- 0 0 0 --
29-08-2018 34.4 (17:30) 14.8 (00:00) 24.6 9.72 (18:30) 5.28 (18:20) 0 0 0 0 0
28-08-2018 36.9 (15:50) 19.9 (00:00) 28.4 12.78 (17:40) 6.11 (00:30) 0 0 0 0 0
27-08-2018 36.4 (16:10) 13.6 (00:00) 25 9.17 (19:10) 6.11 (18:40) 0 0 0 0 0
26-08-2018 36.6 (17:20) 16.6 (00:00) 26.6 8.33 (20:40) 5.28 (20:40) 0 0 0 0 0
25-08-2018 35.1 (17:50) 15.4 (00:00) 25.2 9.17 (14:40) 5 (16:50) 0 0 0 0 0
24-08-2018 35 (17:40) 13.5 (00:00) 24.3 6.94 (00:50) 4.44 (01:00) 0 0 0 0 0
23-08-2018 33.6 (15:10) 14.6 (00:00) 24.1 10 (17:40) 5.56 (16:20) 0.6 0 0 0 0.6

Gráficas

Temp. máximas Temp. mínimas Temp. medias Precipitaciones Rachas de viento máximas Velocidades máximas media en intervalos de 10 minutos

Datos horarios

Fecha y hora oficial Temperatura (ºC) Velocidad del viento (km/h) Dirección del viento Racha (km/h) Dirección de racha Precipitación (mm) Presión (hPa) Tendencia (hPa) Humedad (%)
2018-09-21 23:00:00 21.7 6 Sur 18 Sudeste 0 932.1 2.2 60
2018-09-21 22:00:00 22.9 9 Sur 18 Sur 0 931.6 2.2 56
2018-09-21 21:00:00 24.7 10 Sur 19 Sur 0 930.7 1.6 48
2018-09-21 20:00:00 27.1 11 Sudeste 22 Sudeste 0 929.9 0.6 34
2018-09-21 19:00:00 30.4 13 Sudeste 22 Sudeste 0 929.4 -0.3 26
2018-09-21 18:00:00 31.6 5 Sudeste 17 Este 0 929.1 -1.2 26
2018-09-21 17:00:00 31.2 4 Norte 14 Sudoeste 0 929.3 -1.7 27
2018-09-21 16:00:00 31.4 6 Sur 16 Sudeste 0 929.7 -1.9 25
2018-09-21 15:00:00 29.6 8 Noroeste 12 Noroeste 0 930.3 -1.6 28
2018-09-21 14:00:00 27.7 5 Norte 14 Noroeste 0 931 -0.7 43
2018-09-21 13:00:00 25.3 6 Noroeste 13 Noroeste 0 931.6 0.2 53
2018-09-21 12:00:00 22 5 Norte 11 Norte 0 931.9 0.7 64
2018-09-21 11:00:00 18.6 4 Norte 9 Norte 0 931.7 1 77
2018-09-21 10:00:00 16.1 3 Noroeste 8 Oeste 0 931.4 1 89
2018-09-21 09:00:00 14 3 Norte 8 Sudeste 0 931.2 1.1 96
2018-09-21 08:00:00 13.1 6 Sudeste 10 Sudeste 0 930.7 0.6 95
2018-09-21 07:00:00 13.6 5 Sudeste 7 Sudeste 0 930.4 0.1 93
2018-09-21 06:00:00 13.9 4 Sudeste 7 Sudeste 0 930.1 -0.4 93
2018-09-21 05:00:00 14.6 2 Oeste 7 Sur 0 930.1 -0.6 92
2018-09-21 04:00:00 15 5 Sudeste 7 Sudeste 0 930.3 -0.5 91
2018-09-21 03:00:00 15.8 6 Sur 8 Sudeste 0 930.5 -0.4 87
2018-09-21 02:00:00 16.7 4 Sur 11 Sudeste 0 930.7 -0.2 84
2018-09-21 01:00:00 17.7 5 Sudeste 8 Sur 0 930.8 0.2 79
2018-09-21 00:00:00 19 6 Sudeste 13 Este 0 930.9 0.8 78
2018-09-20 23:00:00 19.8 3 Este 13 Sudeste 0 930.9 1.3 64
2018-09-20 22:00:00 21.4 10 Sudeste 18 Sur 0 930.6 1.1 55
2018-09-20 21:00:00 22.8 11 Sur 19 Sur 0 930.1 0.7 46
2018-09-20 20:00:00 24.9 10 Sudeste 21 Sudeste 0 929.6 0 42
2018-09-20 19:00:00 28.6 13 Sudeste 27 Este 0 929.5 -0.5 33
2018-09-20 18:00:00 29.9 14 Sudeste 26 Sudeste 0 929.4 -1.2 30
2018-09-20 17:00:00 30.9 15 Sudeste 30 Sudeste 0 929.6 -1.8 26
2018-09-20 16:00:00 30.1 6 Nordeste 14 Norte 0 930 -2.1 30
2018-09-20 15:00:00 29.3 4 Nordeste 14 Sudeste 0 930.6 -2.1 37
2018-09-20 14:00:00 27.3 7 Norte 13 Norte 0 931.4 -1.3 40
2018-09-20 13:00:00 25 6 Norte 14 Norte 0 932.1 -0.5 51
2018-09-20 12:00:00 22.2 4 Noroeste 9 Noroeste 0 932.7 0.3 67
2018-09-20 11:00:00 17.8 3 Noroeste 8 Norte 0 932.7 0.5 94
2018-09-20 10:00:00 16.2 3 Oeste 6 Noroeste 0 932.6 0.5 96
2018-09-20 09:00:00 14 3 Sur 7 Sudeste 0 932.4 0.4 96
2018-09-20 08:00:00 13.5 5 Sur 9 Sudeste 0 932.2 0.2 95
2018-09-20 07:00:00 14.6 5 Sudeste 7 Sudeste 0 932.1 -0.2 94
2018-09-20 06:00:00 16.1 5 Oeste 8 Sudoeste 0 932 -0.7 95
2018-09-20 05:00:00 15.9 4 Norte 7 Nordeste 0 932 -1 92
2018-09-20 04:00:00 16.4 4 Sur 11 Sur 0 932.3 -0.8 87
2018-09-20 03:00:00 16.9 8 Sur 12 Sur 0 932.7 -0.4 88
2018-09-20 02:00:00 17.6 6 Sur 12 Sudeste 0 933 0.1 94
2018-09-20 01:00:00 18.6 7 Sudeste 11 Sudeste 0 933.1 0.5 94
2018-09-20 00:00:00 19.2 3 Este 9 Sur 0 933.1 1.3 92
2018-09-19 23:00:00 20.2 5 Sur 11 Sudeste 0 932.9 1.1 89
2018-09-19 22:00:00 21 7 Sur 19 Sudeste 0 932.6 1.2 85
2018-09-19 21:00:00 21.9 11 Sudeste 23 Sudeste 0 931.8 1 81
2018-09-19 20:00:00 22.7 9 Sudeste 19 Sudeste 0 931.8 0.8 71
2018-09-19 19:00:00 24.9 13 Sudeste 26 Sudeste 0 931.4 0.6 52
2018-09-19 18:00:00 27.8 14 Este 27 Este 0 930.8 -0.1 49
2018-09-19 17:00:00 25.3 6 Nordeste 28 Nordeste 0 931 -0.5 57
2018-09-19 16:00:00 29.1 8 Este 21 Sur 0 930.8 -1.3 41
2018-09-19 15:00:00 29.6 7 Sur 21 Sur 0 930.9 -1.5 33
2018-09-19 14:00:00 27.6 5 Noroeste 12 Noroeste 0 931.5 -0.7 41
2018-09-19 13:00:00 25.2 5 Noroeste 10 Norte 0 932.1 0.2 58
2018-09-19 12:00:00 22.6 5 Norte 10 Norte 0 932.4 1 70
2018-09-19 11:00:00 18.9 3 Nordeste 8 Noroeste 0 932.2 1.5 90
2018-09-19 10:00:00 16.3 2 Nordeste 6 Oeste 0 931.9 1.5 97
2018-09-19 09:00:00 15.2 3 Sur 7 Sur 0 931.4 1.1 96
2018-09-19 08:00:00 14.9 2 Oeste 8 Sur 0 930.7 0.3 95
2018-09-19 07:00:00 15.1 2 Sudoeste 5 Oeste 0 930.4 -0.2 95
2018-09-19 06:00:00 15.4 2 Este 8 Sur 0 930.3 -0.4 95
2018-09-19 05:00:00 15.7 5 Sur 9 Sudeste 0 930.4 -0.2 94
2018-09-19 04:00:00 16.7 0 Calma 10 Noroeste 0 930.6 0 93
2018-09-19 03:00:00 17.4 5 Oeste 9 Oeste 0 930.7 0.1 93
2018-09-19 02:00:00 17.7 4 Este 9 Sur 0 930.6 0.1 91
2018-09-19 01:00:00 18.1 7 Sur 10 Sur 0 930.6 0.8 90
2018-09-19 00:00:00 19.2 5 Sudeste 15 Sudeste 0 930.6 1.9 86
2018-09-18 23:00:00 20.1 6 Este 19 Sudeste 0 930.5 2.4 84
2018-09-18 22:00:00 20.9 9 Sur 19 Sudeste 0 929.8 2.3 80
2018-09-18 21:00:00 21.8 8 Sudeste 17 Sur 0 928.7 1.5 70
2018-09-18 20:00:00 23.6 11 Sur 22 Sur 0 928.1 0.9 59
2018-09-18 19:00:00 25.4 14 Sudeste 23 Sudeste 0 927.5 0.2 49
2018-09-18 18:00:00 27.2 9 Sudeste 19 Sudeste 0 927.2 -0.6 42
2018-09-18 17:00:00 28.3 8 Oeste 21 Noroeste 0 927.2 -1.1 34
2018-09-18 16:00:00 28.7 10 Oeste 19 Oeste 0 927.3 -1.6 37
2018-09-18 15:00:00 27.2 5 Norte 14 Norte 0 927.8 -1.7 51
2018-09-18 14:00:00 25.1 5 Norte 12 Noroeste 0 928.3 -1 66
2018-09-18 13:00:00 22 5 Norte 13 Norte 0 928.9 -0.1 79
2018-09-18 12:00:00 18.7 4 Norte 12 Norte 0 929.5 1 93
2018-09-18 11:00:00 17.5 3 Noroeste 7 Norte 0 929.3 1.3 98
2018-09-18 10:00:00 16.5 2 Sudoeste 6 Sur 0 929 1.2 98
2018-09-18 09:00:00 15.8 3 Sudeste 5 Sudeste 0 928.5 0.8 98
2018-09-18 08:00:00 15.5 4 Sudeste 6 Sur 0 928 0.6 98
2018-09-18 07:00:00 15.7 3 Sur 7 Noroeste 0 927.8 0.1 97
2018-09-18 06:00:00 15.1 5 Noroeste 9 Noroeste 0 927.7 -0.4 96
2018-09-18 05:00:00 15.3 3 Sur 11 Sudeste 0 927.4 -0.7 96
2018-09-18 04:00:00 15.8 6 Sudeste 9 Sudeste 0 927.7 -0.5 96
2018-09-18 03:00:00 16.4 3 Sur 5 Sudeste 0 928.1 -0.4 96
2018-09-18 02:00:00 16.7 3 Noroeste 9 Sudeste 0 928.1 -0.4 96
2018-09-18 01:00:00 16.6 4 Nordeste 8 Sudeste 0 928.2 -0.4 95
2018-09-18 00:00:00 17 5 Sudeste 8 Sudoeste 0 928.5 0.7 93
2018-09-17 23:00:00 17.7 5 Sudoeste 7 Sudoeste 0 928.5 0.9 92
2018-09-17 22:00:00 18.2 4 Sur 6 Sur 0 928.6 1.1 89
2018-09-17 21:00:00 19 5 Oeste 8 Oeste 0 927.8 -0.1 82
2018-09-17 20:00:00 19.7 5 Noroeste 12 Noroeste 0 927.6 -0.6 79
2018-09-17 19:00:00 19.7 5 Sudoeste 10 Oeste 0 927.5 -0.7 80
2018-09-17 18:00:00 19.2 9 Noroeste 23 Norte 0 927.9 -0.8 81
2018-09-17 17:00:00 20.7 13 Norte 26 Norte 0 928.2 -0.8 83
2018-09-17 16:00:00 21 12 Sudeste 24 Sudeste 0 928.2 -1.7 83
2018-09-17 15:00:00 22.5 16 Sur 40 Sudeste 0 928.7 -1.6 73
2018-09-17 14:00:00 25 23 Sudeste 35 Sudeste 0 929 -1 64
2018-09-17 13:00:00 24.1 18 Sudeste 32 Sudeste 0 929.9 0.1 68
2018-09-17 12:00:00 23 12 Sudeste 33 Este 0 930.3 0.2 73
2018-09-17 11:00:00 20.3 8 Sudeste 18 Sudeste 0 930 0 82
2018-09-17 10:00:00 17.4 3 Sudeste 5 Este 0 929.8 -0.1 94
2018-09-17 09:00:00 16 2 Noroeste 9 Norte 0 930.1 0.1 96
2018-09-17 08:00:00 15.4 4 Este 10 Sudeste 0 930 -0.3 95
2018-09-17 07:00:00 15.9 5 Sur 9 Sur 0 929.9 -0.6 94
2018-09-17 06:00:00 16.8 4 Sudoeste 8 Nordeste 0 930 -1 94
2018-09-17 05:00:00 17.5 4 Este 11 Sudeste 0 930.3 -1.2 94
2018-09-17 04:00:00 17.4 7 Sudeste 13 Sudeste 0 930.5 -1.1 95
2018-09-17 03:00:00 17.3 5 Sudeste 16 Sudeste 0 931 -0.4 95
2018-09-17 02:00:00 17.6 7 Sur 11 Sur 0 931.5 0 94
2018-09-17 01:00:00 18.3 6 Sudeste 8 Sudeste 0 931.6 0.2 93
2018-09-17 00:00:00 19.1 6 Sur 13 Sudeste 0 931.4 0.5 92
2018-09-16 23:00:00 19.9 8 Sudeste 19 Sudeste 0 931.5 1.1 87
2018-09-16 22:00:00 20.3 9 Sur 15 Sudeste 0 931.4 1.5 81
2018-09-16 21:00:00 21 8 Sur 18 Sudeste 0 930.9 1.2 76
2018-09-16 20:00:00 22.6 12 Sudeste 31 Sudeste 0 930.4 0.5 67
2018-09-16 19:00:00 24.9 18 Sudeste 31 Sudeste 0 929.9 -0.4 59
2018-09-16 18:00:00 27 14 Sudeste 29 Sudeste 0 929.7 -1.2 52
2018-09-16 17:00:00 27.9 8 Este 21 Sudeste 0 929.9 -1.6 47
2018-09-16 16:00:00 27.4 4 Sur 16 Noroeste 0 930.3 -1.9 49
2018-09-16 15:00:00 26.4 4 Sudoeste 11 Sudeste 0 930.9 -1.8 53
2018-09-16 14:00:00 24.3 4 Este 9 Este 0 931.5 -1.3 55
2018-09-16 13:00:00 21.4 4 Nordeste 11 Noroeste 0.2 932.2 -0.4 76
2018-09-16 12:00:00 17.9 3 Norte 6 Sudoeste 0 932.7 0.2 94
2018-09-16 11:00:00 16 3 Nordeste 10 Norte 0 932.8 0.9 98
2018-09-16 10:00:00 15.2 2 Noroeste 9 Noroeste 0 932.6 1 97
2018-09-16 09:00:00 14.3 6 Noroeste 9 Norte 0 932.5 1.4 97
2018-09-16 08:00:00 13.8 4 Sudeste 7 Sudeste 0 931.9 0.6 97
2018-09-16 07:00:00 14.7 3 Sur 6 Sur 0 931.6 -0.3 97
2018-09-16 06:00:00 14.3 3 Sur 6 Sudeste 0 931.1 -1.4 97
2018-09-16 05:00:00 14.3 3 Oeste 8 Noroeste 0 931.3 -1 97
2018-09-16 04:00:00 14.5 5 Este 7 Este 0 931.9 -0.3 96
2018-09-16 03:00:00 14.9 4 Este 8 Sur 0 932.5 0.1 96
2018-09-16 02:00:00 15.4 5 Sudeste 7 Nordeste 0 932.3 0.2 96
2018-09-16 01:00:00 16.1 6 Sur 9 Sur 0 932.2 0.6 96
2018-09-16 00:00:00 16.5 6 Sur 9 Sur 0 932.4 1.4 95
2018-09-15 23:00:00 16.8 4 Sudeste 9 Sudeste 0 932.1 1.6 94
2018-09-15 22:00:00 17.3 5 Sudeste 10 Sudeste 0 931.6 1.3 93
2018-09-15 21:00:00 18.2 5 Sur 8 Sur 0 931 1 91
2018-09-15 20:00:00 19.2 2 Noroeste 11 Sur 0 930.5 0.3 90
2018-09-15 19:00:00 19.8 6 Sur 15 Sur 0 930.3 0.2 85
2018-09-15 18:00:00 20.4 8 Sur 23 Sur 0 930 -0.6 82
2018-09-15 17:00:00 20 8 Sur 18 Sur 0.4 930.2 -0.4 85
2018-09-15 16:00:00 20.7 3 Este 9 Sudeste 0.8 930.1 -0.5 85
2018-09-15 15:00:00 19.1 6 Sudeste 24 Sudeste 0.6 930.6 -0.1 90
2018-09-15 14:00:00 20.3 2 Este 7 Sudoeste 0.2 930.6 -0.1 85
2018-09-15 13:00:00 19.8 4 Oeste 9 Sudoeste 0 930.6 0.4 86
2018-09-15 12:00:00 17.9 6 Oeste 8 Sudoeste 0.6 930.7 1.1 92
2018-09-15 11:00:00 17.5 0 Calma 11 Sudeste 2.4 930.7 1.4 94
2018-09-15 10:00:00 17.8 2 Sudeste 11 Sudeste 0.4 930.2 1.2 92
2018-09-15 09:00:00 17.4 3 Oeste 7 Este 0 929.6 0.7 92
2018-09-15 08:00:00 17.3 3 Sur 4 Sudeste 0 929.3 0.3 91
2018-09-15 07:00:00 17.3 2 Noroeste 6 Oeste 0 929 0 90
2018-09-15 06:00:00 17.2 3 Oeste 8 Sudoeste 0 928.9 -0.6 91
2018-09-15 05:00:00 16.9 2 Este 7 Norte 0 929 -1 92
2018-09-15 04:00:00 16.8 3 Este 8 Sudoeste 0 929 -1 90
2018-09-15 03:00:00 17.1 3 Sur 25 Sudeste 0 929.5 -0.5 86
2018-09-15 02:00:00 17.6 8 Sudeste 15 Sudeste 0 930 0.2 89
2018-09-15 01:00:00 18.1 8 Sudeste 11 Sudeste 0 930 0.6 92
2018-09-15 00:00:00 18.9 6 Sudeste 10 Sur 0 930 1 90
2018-09-14 23:00:00 20 6 Sur 21 Sudeste 0 929.8 1.1 86
2018-09-14 22:00:00 20.9 10 Sudeste 19 Sudeste 0 929.4 1.1 77
2018-09-14 21:00:00 21.6 10 Sur 23 Sudeste 0 929 0.4 69
2018-09-14 20:00:00 22.7 12 Sudeste 23 Sudeste 0 928.7 0.3 64
2018-09-14 19:00:00 24.4 15 Sudeste 25 Este 0 928.3 -0.3 57
2018-09-14 18:00:00 23.6 9 Oeste 23 Oeste 0 928.6 -0.8 50
2018-09-14 17:00:00 25.1 12 Sudeste 26 Sudeste 0 928.4 -1.5 44
2018-09-14 16:00:00 27.7 16 Sudeste 29 Sur 0 928.6 -1.7 36
2018-09-14 15:00:00 24.4 14 Sudeste 31 Sudeste 0 929.4 -1.3 46
2018-09-14 14:00:00 25.8 14 Sudeste 27 Sudeste 0 929.9 -0.7 46
2018-09-14 13:00:00 26.2 5 Sudoeste 12 Sudeste 0 930.3 -0.1 50
2018-09-14 12:00:00 22.9 3 Norte 10 Norte 0 930.7 0.5 66
2018-09-14 11:00:00 20.6 3 Nordeste 9 Noroeste 0 930.6 0.8 76
2018-09-14 10:00:00 18.3 2 Sudeste 6 Oeste 0 930.4 0.8 89
2018-09-14 09:00:00 16.2 3 Sur 6 Sudeste 0 930.2 0.7 94
2018-09-14 08:00:00 16.6 3 Noroeste 6 Oeste 0 929.8 0.3 93
2018-09-14 07:00:00 16.6 2 Noroeste 5 Sur 0 929.6 -0.3 92
2018-09-14 06:00:00 16.8 4 Sur -- -- 0 929.5 -0.7 92
2018-09-14 05:00:00 16.8 5 Sudeste 8 Sudeste 0 929.5 -1.2 92
2018-09-14 04:00:00 17.3 5 Sudeste 8 Sur 0 929.9 -0.9 91
2018-09-14 03:00:00 17.6 5 Sudeste 9 Sudeste 0 930.2 -0.4 92
2018-09-14 02:00:00 18.2 5 Sudeste 12 Este 0 930.7 0.3 88
2018-09-14 01:00:00 19 5 Este 12 Sudeste 0 930.8 0.7 84
2018-09-14 00:00:00 20.2 8 Sudeste 14 Sudeste 0 930.6 1 77
2018-09-13 23:00:00 20.9 9 Sudeste 19 Sudeste 0 930.4 1.1 72
2018-09-13 22:00:00 21.7 9 Sudeste 17 Sur 0 930.1 1 70
2018-09-13 21:00:00 23 9 Sur 27 Sudeste 0 929.6 0.7 62
2018-09-13 20:00:00 25 10 Sudeste 25 Sudeste 0 929.3 0.3 55
2018-09-13 19:00:00 28.2 16 Sudeste 35 Sudeste 0 929.1 -0.4 40
2018-09-13 18:00:00 27.9 18 Sudeste 33 Este 0 928.9 -1.2 33
2018-09-13 17:00:00 30.7 5 Nordeste 23 Este 0 929 -1.8 29
2018-09-13 16:00:00 29.8 6 Este 20 Este 0 929.5 -2 32
2018-09-13 15:00:00 29.6 8 Sudeste 16 Este 0 930.1 -1.9 32
2018-09-13 14:00:00 27.6 9 Norte 18 Noroeste 0 930.8 -1.2 42
2018-09-13 13:00:00 26.4 5 Norte 10 Norte 0 931.5 -0.1 49
2018-09-13 12:00:00 23.6 3 Nordeste 8 Norte 0 932 0.5 65
2018-09-13 11:00:00 20.5 3 Nordeste 9 Norte 0 932 0.8 85
2018-09-13 10:00:00 18.2 3 Noroeste 8 Noroeste 0 931.6 0.6 94
2018-09-13 09:00:00 16.8 2 Sudeste 5 Sudoeste 0 931.5 0.5 95
2018-09-13 08:00:00 16.8 4 Sudoeste 6 Sudoeste 0 931.2 0.1 94
2018-09-13 07:00:00 17.5 2 Nordeste 8 Sudoeste 0 931 -0.4 94
2018-09-13 06:00:00 18.4 3 Oeste 6 Noroeste 0 931 -0.8 95
2018-09-13 05:00:00 18.8 4 Sudeste 5 Sudeste 0 931.1 -1.2 94
2018-09-13 04:00:00 18.9 3 Este 6 Sudeste 0 931.4 -1.1 94
2018-09-13 03:00:00 18.9 5 Sudeste 9 Sudeste 0 931.8 -0.9 94
2018-09-13 02:00:00 19.1 5 Sudeste 8 Sudeste 0 932.3 -0.2 92
2018-09-13 01:00:00 20 3 Sudoeste 6 Oeste 0 932.5 0.3 89
2018-09-13 00:00:00 20.1 5 Norte 9 Sur 0 932.7 1.2 88
2018-09-12 23:00:00 20.8 4 Sudeste 22 Sudeste 0 932.5 1.3 84
2018-09-12 22:00:00 21.6 10 Sudeste 23 Sudeste 0 932.2 0.7 81
2018-09-12 21:00:00 22.6 12 Sudeste 21 Sudeste 0 931.5 0.1 73
2018-09-12 20:00:00 25 10 Sudeste 24 Sudeste 0 931.2 -0.6 61
2018-09-12 19:00:00 28 11 Sudeste 17 Sudeste 0 931.5 -0.8 48
2018-09-12 18:00:00 29.3 4 Sur 15 Oeste 0 931.4 -1.6 38
2018-09-12 17:00:00 29.2 4 Noroeste 14 Norte 0 931.8 -1.8 42
2018-09-12 16:00:00 28 7 Noroeste 18 Norte 0 932.3 -2 49
2018-09-12 15:00:00 26.7 6 Sudoeste 15 Sudeste 0 933 -1.5 55
2018-09-12 14:00:00 25 8 Sudeste 17 Sudeste 0 933.6 -0.6 62
2018-09-12 13:00:00 24.4 7 Sudeste 16 Sudeste 0 934.3 0.6 66
2018-09-12 12:00:00 22.2 6 Sudeste 13 Este 0 934.5 1 76
2018-09-12 11:00:00 19.6 3 Norte 7 Oeste 0 934.2 1 86
2018-09-12 10:00:00 17.8 3 Norte 6 Noroeste 0 933.7 0.7 94
2018-09-12 09:00:00 16.1 4 Sudeste 8 Sudeste 0 933.5 0.5 95
2018-09-12 08:00:00 15.7 5 Sudeste 8 Oeste 0 933.2 0.4 93
2018-09-12 07:00:00 16.7 6 Oeste 11 Noroeste 0 933 0 93
2018-09-12 06:00:00 17 4 Oeste 8 Oeste 0 933 -0.6 94
2018-09-12 05:00:00 17 4 Este 9 Sudeste 0 932.8 -1 93
2018-09-12 04:00:00 17.7 4 Este 19 Sudeste 0 933 -0.9 92
2018-09-12 03:00:00 17.7 10 Sudeste 18 Sudeste 0 933.6 -0.4 94
2018-09-12 02:00:00 17.5 6 Este 8 Este 0 933.8 0.1 93
2018-09-12 01:00:00 17.8 5 Este 9 Este 0 933.9 0.8 92
2018-09-12 00:00:00 18.5 6 Sudeste 10 Sudeste 0 934 1.5 92
2018-09-11 23:00:00 18.6 6 Sudeste 9 Sudeste 0 933.7 1.5 90
2018-09-11 22:00:00 19.5 7 Sudeste 12 Sudeste 0 933.1 1 87
2018-09-11 21:00:00 20.3 8 Sudeste 14 Sudeste 0 932.5 0.2 83
2018-09-11 20:00:00 21.2 9 Sudeste 17 Sudeste 0 932.2 -0.1 78
2018-09-11 19:00:00 22.5 10 Sudeste 22 Sudeste 0 932.1 -0.7 72
2018-09-11 18:00:00 21.3 13 Sudeste 24 Sudeste 0 932.3 -1.1 78
2018-09-11 17:00:00 23 13 Sudeste 23 Este 0 932.3 -1.5 70
2018-09-11 16:00:00 21.6 7 Sudeste 18 Sudeste 0 932.8 -0.9 78
2018-09-11 15:00:00 21.3 9 Sudeste 20 Sudeste 0 933.4 -0.5 79
2018-09-11 14:00:00 20.4 13 Sudeste 21 Sudeste 0 933.8 0.2 81
2018-09-11 13:00:00 21.9 6 Sudeste 14 Este 0 933.7 0.4 68
2018-09-11 12:00:00 21.1 4 Este 11 Norte 0 933.9 0.7 72
2018-09-11 11:00:00 19.2 3 Nordeste 8 Nordeste 0 933.6 0.7 83
2018-09-11 10:00:00 17.2 2 Este 6 Este 0 933.3 0.4 92
2018-09-11 09:00:00 15.5 3 Este 9 Sudeste 0 933.2 0.5 94
2018-09-11 08:00:00 14.5 4 Sudeste 10 Sudeste 0 932.9 -0.1 94
2018-09-11 07:00:00 14.8 7 Sudeste 11 Sudeste 0 932.9 -0.1 93
2018-09-11 06:00:00 15.2 7 Sudeste 8 Sudeste 0 932.7 -0.4 94
2018-09-11 05:00:00 15.8 5 Este 7 Este 0 933 -0.4 93
2018-09-11 04:00:00 16.4 4 Este 10 Sudeste 0 933 -0.5 92
2018-09-11 03:00:00 17.5 5 Sudeste 11 Este 0 933.1 -0.5 90
2018-09-11 02:00:00 17.5 3 Nordeste 14 Sudeste 0 933.4 0 89
2018-09-11 01:00:00 18.3 10 Sudeste 16 Sudeste 0 933.5 0.6 85
2018-09-11 00:00:00 19.3 12 Sudeste 24 Sudeste 0 933.6 1.6 83
2018-09-10 23:00:00 19.9 10 Sudeste 18 Sudeste 0 933.4 1.9 83
2018-09-10 22:00:00 20.3 8 Sudeste 17 Sur 0 932.9 1.8 82
2018-09-10 21:00:00 20.9 8 Sur 24 Sudeste 0 932 1.3 78
2018-09-10 20:00:00 22.5 14 Sudeste 27 Sudeste 0 931.5 0.7 68
2018-09-10 19:00:00 25 15 Sudeste 30 Sudeste 0 931.1 0 56
2018-09-10 18:00:00 26.5 15 Sudeste 28 Sudeste 0 930.7 -0.9 52
2018-09-10 17:00:00 26.9 15 Sudeste 26 Sudeste 0 930.8 -1.2 46
2018-09-10 16:00:00 25.1 6 Nordeste 17 Norte 0 931.1 -1.4 51
2018-09-10 15:00:00 24.8 8 Nordeste 22 Este 0 931.6 -1.4 56
2018-09-10 14:00:00 24.4 6 Sudeste 14 Sudeste 0 932 -0.8 57
2018-09-10 13:00:00 21.6 4 Norte 11 Oeste 0 932.5 0.2 68
2018-09-10 12:00:00 17.9 4 Sudeste 11 Este 0 933 1.2 91
2018-09-10 11:00:00 15.7 4 Noroeste 9 Norte 0 932.8 1.4 96
2018-09-10 10:00:00 14.9 5 Norte 9 Norte 0 932.3 1.2 96
2018-09-10 09:00:00 14 3 Noroeste 6 Oeste 0 931.8 0.7 96
2018-09-10 08:00:00 13 3 Noroeste 9 Oeste 0 931.4 -0.2 95
2018-09-10 07:00:00 12.7 4 Sur 9 Sudeste 0 931.1 -0.6 95
2018-09-10 06:00:00 13.4 5 Sur 11 Sur 0 931.1 -0.7 95
2018-09-10 05:00:00 13.6 5 Sur 10 Sudeste 0 931.6 -0.1 95
2018-09-10 04:00:00 14.2 3 Este 9 Noroeste 0.2 931.7 -0.5 95
2018-09-10 03:00:00 14.1 4 Noroeste 10 Sudeste 0 931.8 -0.2 94
2018-09-10 02:00:00 14.4 9 Sudeste 12 Sudeste 0 931.7 0.4 93
2018-09-10 01:00:00 15.3 6 Sur 9 Sudoeste 0 932.2 1.6 94
2018-09-10 00:00:00 16.1 5 Este 13 Noroeste 0 932 2.4 93
2018-09-09 23:00:00 16.3 4 Sur 11 Sudeste 0 931.3 2.3 93
2018-09-09 22:00:00 17 6 Sur 16 Noroeste 0 930.6 1.6 93
2018-09-09 21:00:00 17.4 7 Noroeste 14 Noroeste 0 929.6 0.1 93
2018-09-09 20:00:00 17.9 4 Norte 15 Sudeste 0 929 0.1 90
2018-09-09 19:00:00 18.2 13 Sudeste 22 Sudeste 0 929 -0.3 86
2018-09-09 18:00:00 18 8 Oeste 26 Este 0 929.5 -0.3 88
2018-09-09 17:00:00 18.1 10 Noroeste 26 Oeste 0 928.9 -0.7 87
2018-09-09 16:00:00 17.7 7 Noroeste 22 Este 0.2 929.3 -1.6 90
2018-09-09 15:00:00 17.8 7 Sudeste 11 Sur 0 929.8 -1.6 89
2018-09-09 14:00:00 16.3 8 Este 13 Este 0 929.6 -1.7 93
2018-09-09 13:00:00 15.7 6 Sudeste 12 Sur 0 930.9 0.2 92
2018-09-09 12:00:00 15.3 2 Oeste 12 Norte 0 931.4 1 93
2018-09-09 11:00:00 15.3 9 Norte 13 Norte 0 931.3 1.5 94
2018-09-09 10:00:00 14.4 2 Norte 4 Este 0 930.7 1.3 96
2018-09-09 09:00:00 13.1 3 Noroeste 9 Oeste 0 930.4 0.9 96
2018-09-09 08:00:00 12.8 3 Sudoeste 7 Este 0 929.8 0.2 96
2018-09-09 07:00:00 12.9 3 Sudeste 7 Sudeste 0 929.4 -0.4 96
2018-09-09 06:00:00 13.3 3 Sur 8 Sudoeste 0 929.5 -0.4 96
2018-09-09 05:00:00 13.4 3 Nordeste 9 Sur 0 929.6 -0.2 96
2018-09-09 04:00:00 13.8 6 Sur 9 Sur 0 929.8 -0.3 95
2018-09-09 03:00:00 14.3 2 Sur 6 Noroeste 0 929.9 -0.2 95
2018-09-09 02:00:00 14.5 4 Noroeste 10 Noroeste 0 929.8 -0.1 95
2018-09-09 01:00:00 14.4 2 Sudoeste 6 Sudeste 0 930.1 -0.2 95
2018-09-09 00:00:00 14.9 2 Sur 9 Norte 0 930.1 -0.1 94
2018-09-08 23:00:00 15.6 4 Sur 9 Sur 0 929.9 0.1 94
2018-09-08 22:00:00 16 2 Nordeste 14 Noroeste 0 930.3 0.7 94
2018-09-08 21:00:00 16.5 5 Sudoeste 10 Oeste 0.6 930.2 -0.6 94
2018-09-08 20:00:00 17 3 Norte 18 Oeste 1 929.8 0.7 92
2018-09-08 19:00:00 18.2 8 Sudeste 20 Sur 2.2 929.6 0.2 88
2018-09-08 18:00:00 16.8 13 Sudoeste 26 Sudoeste 0.6 930.8 0.4 93
2018-09-08 17:00:00 17.2 5 Noroeste 13 Sur 0 929.1 -0.8 91
2018-09-08 16:00:00 17.2 4 Sudeste 14 Noroeste 2.2 929.4 -1.1 91
2018-09-08 15:00:00 17.1 9 Noroeste 18 Sudoeste 3.2 930.4 0.7 92
2018-09-08 14:00:00 17.3 3 Este 17 Este 2.2 929.9 0.7 90
2018-09-08 13:00:00 16.7 8 Sur 33 Sudeste 0.4 930.5 1.1 88
2018-09-08 12:00:00 18 20 Sudeste 34 Sudeste 0 929.7 -1.4 77
2018-09-08 11:00:00 16.6 8 Este 28 Sur 1.6 929.2 -0.3 92
2018-09-08 10:00:00 14.7 12 Sur 39 Este 6 929.4 1.9 93
2018-09-08 09:00:00 15.2 6 Sur 13 Este 3.4 931.1 4.5 89
2018-09-08 08:00:00 15.8 7 Oeste 29 Sudoeste 1.4 929.5 2.3 81
2018-09-08 07:00:00 15 10 Sur 13 Sur 0 927.5 0.2 81
2018-09-08 06:00:00 14.1 7 Sudeste 12 Sur 0 926.6 -0.9 81
2018-09-08 05:00:00 14.1 6 Sudeste 9 Sur 0 927.2 -0.6 85
2018-09-08 04:00:00 15 3 Nordeste 9 Sudeste 0 927.3 -0.7 84
2018-09-08 03:00:00 15.8 6 Este 10 Sudeste 0 927.5 -0.7 80
2018-09-08 02:00:00 17.1 5 Sudeste 18 Sur 0 927.8 0.2 79
2018-09-08 01:00:00 17.9 9 Sur 20 Sur 0 928 1.3 81
2018-09-08 00:00:00 18.7 10 Sur 16 Sur 0 928.2 2.7 76
2018-09-07 23:00:00 19.8 9 Sudeste 19 Sudeste 0 927.6 2.7 68
2018-09-07 22:00:00 21 10 Sur 26 Sudeste 0 926.7 2 63
2018-09-07 21:00:00 22.7 14 Sur 27 Sudeste 0 925.5 1 55
2018-09-07 20:00:00 25.1 16 Sudeste 32 Sudeste 0 924.9 0.5 48
2018-09-07 19:00:00 27.2 13 Sudeste 25 Sudeste 0 924.7 0 40
2018-09-07 18:00:00 29.7 11 Este 22 Este 0 924.5 -0.3 35
2018-09-07 17:00:00 28.7 6 Nordeste 18 Nordeste 0 924.4 -0.9 36
2018-09-07 16:00:00 28 8 Nordeste 22 Norte 0 924.7 -1.6 33
2018-09-07 15:00:00 29.1 4 Nordeste 26 Norte 0 924.8 -2.1 26
2018-09-07 14:00:00 27.7 9 Norte 19 Noroeste 0 925.3 -1.7 27
2018-09-07 13:00:00 26.5 6 Nordeste 15 Este 0 926.3 -0.5 33
2018-09-07 12:00:00 24.1 4 Nordeste 14 Norte 0 926.9 0.4 46
2018-09-07 11:00:00 20.3 3 Oeste 9 Noroeste 0 927 0.8 59
2018-09-07 10:00:00 17.4 0 Calma 9 Norte 0 926.8 1 66
2018-09-07 09:00:00 15.1 3 Este 13 Sur 0 926.5 0.9 72
2018-09-07 08:00:00 13.1 6 Sudeste 12 Sur 0 926.2 0.7 75
2018-09-07 07:00:00 14.1 4 Sudeste 8 Sudeste 0 925.8 0.2 69
2018-09-07 06:00:00 15 6 Sudeste 9 Sur 0 925.6 -0.2 67
2018-09-07 05:00:00 16.8 3 Sur 5 Sudeste 0 925.5 -0.5 63
2018-09-07 04:00:00 18.1 2 Noroeste 6 Noroeste 0 925.6 -0.6 56
2018-09-07 03:00:00 18.7 0 Calma 6 Oeste 0 925.8 -0.6 53
2018-09-07 02:00:00 19.1 3 Sudoeste 13 Este 0 926 -0.5 53
2018-09-07 01:00:00 19.6 7 Sudeste 12 Sudeste 0 926.2 0.3 49
2018-09-07 00:00:00 20.4 4 Sudeste 10 Sudoeste 0 926.4 1.1 44
2018-09-06 23:00:00 21.4 4 Sudeste 13 Sudoeste 0 926.5 1.9 42
2018-09-06 22:00:00 22.8 9 Oeste 17 Oeste 0 925.9 1.6 36
2018-09-06 21:00:00 24 11 Oeste 22 Oeste 0 925.3 1.3 35
2018-09-06 20:00:00 25.7 13 Oeste 22 Oeste 0 924.6 0.6 34
2018-09-06 19:00:00 27.7 14 Oeste 22 Oeste 0 924.3 -0.3 28
2018-09-06 18:00:00 29.3 8 Noroeste 27 Norte 0 924 -1.1 27
2018-09-06 17:00:00 29.4 5 Norte 19 Noroeste 0 924 -1.6 24
2018-09-06 16:00:00 29.1 10 Oeste 26 Oeste 0 924.6 -1.5 24
2018-09-06 15:00:00 27.4 13 Oeste 22 Noroeste 0 925.1 -1.6 26
2018-09-06 14:00:00 26.3 9 Noroeste 24 Oeste 0 925.6 -1.2 33
2018-09-06 13:00:00 24.2 10 Noroeste 19 Noroeste 0 926.1 -0.5 45
2018-09-06 12:00:00 22 12 Noroeste 21 Noroeste 0 926.7 0.2 53
2018-09-06 11:00:00 19.2 6 Norte 14 Norte 0 926.8 0.7 68
2018-09-06 10:00:00 17.3 8 Norte 15 Noroeste 0 926.6 0.9 72
2018-09-06 09:00:00 16.5 9 Noroeste 16 Oeste 0 926.5 1 74
2018-09-06 08:00:00 16.4 4 Oeste 21 Sudoeste 0 926.1 0.5 73
2018-09-06 07:00:00 15.9 6 Noroeste 23 Noroeste 0 925.7 -0.1 74
2018-09-06 06:00:00 16.7 13 Oeste 22 Oeste 0 925.5 -0.6 69
2018-09-06 05:00:00 15.9 4 Sudoeste 16 Oeste 0 925.6 -1.1 68
2018-09-06 04:00:00 16.4 5 Oeste 11 Sudoeste 0 925.8 -1.2 67
2018-09-06 03:00:00 17.9 8 Sudoeste 13 Oeste 0 926.1 -0.8 60
2018-09-06 02:00:00 19 7 Sudoeste 12 Oeste 0 926.7 0.2 56
2018-09-06 01:00:00 19.7 9 Sudoeste 14 Sudoeste 0 927 0.9 54
2018-09-06 00:00:00 20.5 9 Sudoeste 18 Sudoeste 0 926.9 1.8 51
2018-09-05 23:00:00 21.4 8 Oeste 19 Noroeste 0 926.5 1.9 50
2018-09-05 22:00:00 22 9 Oeste 21 Oeste 0 926.1 1.5 49
2018-09-05 21:00:00 23.2 10 Oeste 22 Oeste 0 925.1 0.5 46
2018-09-05 20:00:00 25.3 14 Oeste 31 Noroeste 0 924.6 -0.2 39
2018-09-05 19:00:00 27.1 20 Oeste 29 Oeste 0 924.6 -0.4 33
2018-09-05 18:00:00 29 14 Oeste 28 Oeste 0 924.6 -0.9 25
2018-09-05 17:00:00 30.1 17 Oeste 31 Oeste 0 924.8 -1.5 24
2018-09-05 16:00:00 29.7 11 Oeste 21 Noroeste 0 925 -2.1 23
2018-09-05 15:00:00 28.8 11 Oeste 21 Oeste 0 925.5 -2.3 25
2018-09-05 14:00:00 26.8 8 Noroeste 14 Noroeste 0 926.3 -1.6 33
2018-09-05 13:00:00 24.4 7 Norte 15 Norte 0 927.1 -0.7 46
2018-09-05 12:00:00 21.5 6 Noroeste 15 Oeste 0 927.8 0.3 57
2018-09-05 11:00:00 18.5 5 Norte 12 Norte 0 927.9 0.9 69
2018-09-05 10:00:00 16.2 4 Sudeste 8 Este 0 927.8 1.2 76
2018-09-05 09:00:00 13.6 4 Sudeste 12 Sur 0 927.5 1.4 73
2018-09-05 08:00:00 13.4 8 Sur 13 Oeste 0 927 1 72
2018-09-05 07:00:00 16.2 8 Noroeste 15 Oeste 0 926.6 0.9 75
2018-09-05 06:00:00 16.8 12 Oeste 19 Oeste 0 926.1 0.2 71
2018-09-05 05:00:00 18 10 Oeste 18 Oeste 0 926 0 64
2018-09-05 04:00:00 18.4 13 Oeste 18 Oeste 0 925.7 -0.1 62
2018-09-05 03:00:00 19.1 13 Oeste 19 Oeste 0 925.9 0.1 60
2018-09-05 02:00:00 19.9 7 Sudoeste 18 Oeste 0 926 0.5 57
2018-09-05 01:00:00 20.9 12 Oeste 18 Oeste 0 925.8 0.9 53
2018-09-05 00:00:00 21.3 8 Sur 14 Sudoeste 0 925.8 1.6 51
2018-09-04 23:00:00 21.9 7 Sur 14 Sudeste 0 925.5 2 68
2018-09-04 22:00:00 23.1 8 Sur 21 Sudeste 0 924.9 1.8 65
2018-09-04 21:00:00 24.4 12 Sur 23 Sudeste 0 924.2 1.5 59
2018-09-04 20:00:00 28.4 5 Noroeste 21 Noroeste 0 923.5 0.5 32
2018-09-04 19:00:00 29.8 13 Noroeste 21 Oeste 0 923.1 -0.5 27
2018-09-04 18:00:00 30 5 Noroeste 12 Nordeste 0 922.7 -1.6 28
2018-09-04 17:00:00 31.4 3 Oeste 14 Norte 0 923 -1.9 24
2018-09-04 16:00:00 30.1 6 Norte 17 Norte 0 923.6 -2 30
2018-09-04 15:00:00 28.3 10 Noroeste 18 Norte 0 924.3 -1.7 35
2018-09-04 14:00:00 25.2 7 Norte 15 Noroeste 0 924.9 -1.1 57
2018-09-04 13:00:00 22.6 6 Noroeste 13 Noroeste 0 925.6 -0.3 74
2018-09-04 12:00:00 20.2 2 Norte 9 Norte 0 926 0.4 83
2018-09-04 11:00:00 18.8 8 Norte 11 Norte 0 926 0.8 87
2018-09-04 10:00:00 17.7 3 Este 5 Este 0 925.9 1.1 93
2018-09-04 09:00:00 16.4 3 Sudoeste 5 Noroeste 0 925.6 0.8 95
2018-09-04 08:00:00 15.4 3 Oeste 10 Sudeste 0 925.2 0.4 94
2018-09-04 07:00:00 15.1 6 Sur 11 Sudeste 0 924.8 -0.1 93
2018-09-04 06:00:00 15.2 7 Sudeste 12 Sudeste 0 924.8 -0.3 93
2018-09-04 05:00:00 15.5 8 Sudeste 11 Sur 0 924.8 -0.8 92
2018-09-04 04:00:00 16.4 2 Norte 7 Sur 0 924.9 -1 92
2018-09-04 03:00:00 17.3 6 Sur 13 Sur 0 925.1 -0.8 88
2018-09-04 02:00:00 18.2 7 Sur 14 Sudeste 0 925.6 -0.1 92
2018-09-04 01:00:00 18.9 8 Sur 11 Sur 0 925.9 0.9 91
2018-09-04 00:00:00 19.7 5 Sudeste 13 Sudeste 0 925.9 1.5 87
2018-09-03 23:00:00 20.5 8 Sudeste 16 Sudeste 0 925.7 1.8 84
2018-09-03 22:00:00 21.5 10 Sudeste 15 Sudeste 0.2 925 1.3 80
2018-09-03 21:00:00 22.7 8 Sudoeste 14 Noroeste 0 924.4 1 71
2018-09-03 20:00:00 24.5 9 Noroeste 22 Norte 0 923.9 0.8 65
2018-09-03 19:00:00 25.1 13 Noroeste 23 Norte 0.2 923.7 -0.4 64
2018-09-03 18:00:00 25.6 12 Norte 18 Norte 0.2 923.4 -1.1 60
2018-09-03 17:00:00 24.3 10 Este 20 Este 0 923.1 -1.1 64
2018-09-03 16:00:00 22.9 7 Sur 22 Nordeste 0.8 924.1 -1 65
2018-09-03 15:00:00 19.6 25 Norte 66 Oeste 0.8 924.5 -1.3 78
2018-09-03 14:00:00 31.9 5 Nordeste 14 Sudeste 0 924.2 -1.9 29
2018-09-03 13:00:00 29.6 3 Nordeste 12 Norte 0 925.1 -1.2 34
2018-09-03 12:00:00 26.3 4 Nordeste 13 Norte 0 925.8 -0.5 48
2018-09-03 11:00:00 23.6 7 Norte 14 Norte 0 926.1 0.1 57
2018-09-03 10:00:00 22.1 6 Noroeste 17 Oeste 0 926.3 0.8 61
2018-09-03 09:00:00 19.4 4 Sur 12 Este 0 926.3 1.1 71
2018-09-03 08:00:00 19.4 3 Nordeste 14 Noroeste 0 926 0.8 71
2018-09-03 07:00:00 19.1 11 Oeste 17 Oeste 0 925.5 -0.1 71
2018-09-03 06:00:00 18.2 6 Sur 10 Sudeste 0 925.2 -0.7 74
2018-09-03 05:00:00 17.5 7 Sudeste 10 Sudeste 0 925.2 -1 75
2018-09-03 04:00:00 18.3 7 Sudeste 9 Sudeste 0 925.6 -0.9 75
2018-09-03 03:00:00 19.4 6 Sudeste 10 Sudeste 0 925.9 -0.7 71
2018-09-03 02:00:00 20.6 3 Sudeste 8 Oeste 0 926.2 -0.4 67
2018-09-03 01:00:00 22.1 3 Sudoeste 18 Sudeste 0 926.5 0.4 62
2018-09-03 00:00:00 23.2 13 Sudeste 21 Este 0 926.6 0.8 58
2018-09-02 23:00:00 24.1 7 Este 25 Sudeste 0 926.6 0.9 55
2018-09-02 22:00:00 25.5 14 Sudeste 27 Sudeste 0 926.1 0.2 51
2018-09-02 21:00:00 27.1 13 Sudeste 31 Sudeste 0 925.8 -0.1 46
2018-09-02 20:00:00 29.1 15 Sudeste 33 Sudeste 0 925.7 -0.7 42
2018-09-02 19:00:00 30.8 20 Sur 30 Sudeste 0 925.9 -0.9 36
2018-09-02 18:00:00 35.1 8 Sur 26 Sudoeste 0 925.9 -1.5 19
2018-09-02 17:00:00 34.8 15 Sudeste 28 Sur 0 926.4 -1.7 24
2018-09-02 16:00:00 35 13 Sudeste 21 Sur 0 926.8 -2 22
2018-09-02 15:00:00 33.5 5 Norte 16 Sudeste 0 927.4 -2 23
2018-09-02 14:00:00 33 8 Sur 19 Sudoeste 0 928.1 -1.4 24
2018-09-02 13:00:00 30.3 5 Sudeste 12 Sur 0 928.8 -0.5 27
2018-09-02 12:00:00 26.9 3 Sur 13 Este 0 929.4 0 40
2018-09-02 11:00:00 23 5 Este 13 Este 0 929.5 0.4 67
2018-09-02 10:00:00 20.1 6 Sudeste 12 Sudeste 0 929.3 0.5 84
2018-09-02 09:00:00 18 2 Este 8 Sudeste 0 929.4 0.5 94
2018-09-02 08:00:00 17.5 6 Sudeste 11 Sudeste 0 929.1 0.2 93
2018-09-02 07:00:00 17.6 8 Sudeste 12 Sudeste 0 928.8 -0.6 91
2018-09-02 06:00:00 17.9 6 Sur 9 Sur 0 928.9 -0.8 90
2018-09-02 05:00:00 18.9 5 Sudeste 17 Sudeste 0 928.9 -0.9 91
2018-09-02 04:00:00 19.6 10 Sudeste 18 Sudeste 0 929.4 -0.2 91
2018-09-02 03:00:00 19.8 5 Sudeste 18 Sudeste 0 929.7 0.1 90
2018-09-02 02:00:00 20.1 8 Sudeste 18 Sudeste 0 929.8 0.3 89
2018-09-02 01:00:00 20.7 12 Sudeste 23 Sur 0 929.6 0.9 86
2018-09-02 00:00:00 21.3 13 Sudeste 23 Sudeste 0 929.6 1.9 83
2018-09-01 23:00:00 22.2 11 Sudeste 18 Sudeste 0 929.5 2.1 76
2018-09-01 22:00:00 23.7 4 Sudeste 31 Sudeste 0 928.7 1.4 66
2018-09-01 21:00:00 25.5 17 Sudeste 32 Sudeste 0 927.7 0.3 53
2018-09-01 20:00:00 28.4 19 Sudeste 35 Sudeste 0 927.4 -0.1 40
2018-09-01 19:00:00 31.9 17 Sudeste 34 Sudeste 0 927.3 -0.7 33
2018-09-01 18:00:00 33.9 17 Sudeste 31 Sudeste 0 927.4 -1.1 26
2018-09-01 17:00:00 35.1 14 Sudeste 29 Sudeste 0 927.5 -1.4 23
2018-09-01 16:00:00 35 13 Sudeste 29 Sudeste 0 928 -1.6 23
2018-09-01 15:00:00 33 17 Sudeste 32 Sudeste 0 928.5 -1.7 26
2018-09-01 14:00:00 31.4 19 Sur 32 Sudeste 0 928.9 -1.5 28
2018-09-01 13:00:00 30.5 16 Sudeste 26 Sur 0 929.6 -0.6 29
2018-09-01 12:00:00 27.2 8 Sudeste 21 Sudeste 0 930.2 0.2 43
2018-09-01 11:00:00 23 3 Este 11 Este 0 930.4 0.9 66
2018-09-01 10:00:00 20.3 4 Este 16 Sudeste 0 930.2 0.8 82
2018-09-01 09:00:00 17.2 3 Sudeste 8 Sur 0 930 0.8 86
2018-09-01 08:00:00 16.4 7 Sur 10 Sudeste 0 929.5 0.1 87
2018-09-01 07:00:00 16.8 6 Sudeste 11 Sur 0 929.4 -0.1 82
2018-09-01 06:00:00 18.1 8 Sur 11 Sur 0 929.2 -0.3 79
2018-09-01 05:00:00 18.8 8 Sur 14 Sur 0 929.4 -0.4 80
2018-09-01 04:00:00 20.2 7 Sur 24 Sudeste 0 929.5 -0.3 86
2018-09-01 03:00:00 20.8 13 Sudeste 24 Sudeste 0 929.5 -0.3 86
2018-09-01 02:00:00 21 11 Sudeste 21 Sudeste 0 929.8 0.3 87
2018-09-01 01:00:00 21.6 10 Sudeste 20 Sudeste 0 929.8 0.6 86
2018-09-01 00:00:00 22.3 10 Este 22 Sudeste 0 929.8 1.6 81
2018-08-31 23:00:00 23 13 Sur 28 Sudeste 0 929.5 2.1 72
2018-08-31 22:00:00 24.2 8 Sur 14 Sur 0 929.2 1.8 65
2018-08-31 21:00:00 26.4 11 Sudeste 30 Sudeste 0 928.2 0.8 46
2018-08-31 20:00:00 28.6 20 Sudeste 35 Sudeste 0 927.4 0 42
2018-08-31 19:00:00 31.4 20 Sudeste 32 Sudeste 0 927.4 -0.4 29
2018-08-31 18:00:00 33.2 18 Sudeste 36 Sudeste 0 927.4 -0.9 26
2018-08-31 17:00:00 34.3 14 Sudeste 27 Sudeste 0 927.4 -1.4 22
2018-08-31 16:00:00 34.3 12 Sudeste 25 Sudeste 0 927.8 -1.5 20
2018-08-31 15:00:00 33.8 10 Sudeste 20 Este 0 928.3 -1.5 21
2018-08-31 14:00:00 30.9 10 Nordeste 18 Norte 0 928.8 -1.2 30
2018-08-31 13:00:00 29.3 5 Este 17 Sudeste 0 929.3 -0.7 39
2018-08-31 12:00:00 25.5 5 Noroeste 10 Norte 0 929.8 0.1 48
2018-08-31 11:00:00 21.5 4 Norte 9 Norte 0 930 0.5 70
2018-08-31 10:00:00 19 3 Norte 6 Sudeste 0 930 0.8 83
2018-08-31 09:00:00 15.6 4 Sudeste 8 Sudeste 0 929.7 0.4 83
2018-08-31 08:00:00 14.6 7 Sudeste 10 Sudeste 0 929.5 -0.1 87
2018-08-31 07:00:00 15.2 9 Sudeste 10 Sudeste 0 929.2 -0.7 90
2018-08-31 06:00:00 16.2 6 Sudeste 9 Sudeste 0 929.3 -1 89
2018-08-31 05:00:00 17.4 7 Sudeste 9 Sudeste 0 929.6 -0.9 88
2018-08-31 04:00:00 18.3 6 Sudeste 10 Sur 0 929.9 -0.7 87
2018-08-31 03:00:00 19.1 7 Sur 13 Sur 0 930.3 -0.4 87
2018-08-31 02:00:00 19.5 8 Sudeste 14 Sur 0 930.5 0.2 85
2018-08-31 01:00:00 20.1 9 Sur 13 Sur 0 930.6 0.8 81
2018-08-31 00:00:00 21.2 6 Sudeste -- -- -- 930.7 1.5 74
2018-08-30 23:00:00 21.9 11 Sudeste -- -- -- 930.3 1.7 70
2018-08-30 22:00:00 22.8 9 Sur 23 Sudeste 0 929.8 1.3 64
2018-08-30 21:00:00 24.1 12 Sudeste 27 Sudeste 0 929.2 0.9 59
2018-08-30 20:00:00 26.5 15 Sudeste 26 Sudeste 0 928.6 -0.1 50
2018-08-30 19:00:00 29.2 14 Sudeste 30 Este 0.4 928.5 -0.4 44
2018-08-30 18:00:00 32.2 10 Sudeste 21 Sur 0 928.3 -1.1 31
2018-08-30 17:00:00 29.9 8 Sudeste 25 Sudeste 0 928.7 -1 36
2018-08-30 16:00:00 31.2 14 Sudeste 31 Sudeste 0 928.9 -1.3 30
2018-08-30 15:00:00 31.9 18 Sudeste 31 Sudeste 0 929.4 -1.5 31
2018-08-30 14:00:00 30.1 10 Sudeste 25 Este 0 929.7 -1.3 39
2018-08-30 13:00:00 28.5 10 Sudeste 22 Sudeste 0 930.2 -0.7 44
2018-08-30 12:00:00 26 7 Este 21 Sudeste 0 930.9 0 53
2018-08-30 11:00:00 22.9 9 Este 18 Este 0 931 0.8 66
2018-08-30 10:00:00 20.5 3 Norte 6 Noroeste 0 930.9 1.1 78
2018-08-30 09:00:00 18.4 4 Norte 12 Este 0 930.9 1.5 87
2018-08-30 08:00:00 16.9 8 Sudeste 12 Sudeste 0 930.2 1.4 89
2018-08-30 07:00:00 17.3 5 Sur 10 Oeste 0 929.8 1.2 86
2018-08-30 06:00:00 18.1 5 Noroeste 10 Noroeste 0 929.4 -0.4 86
2018-08-30 05:00:00 18.6 5 Oeste 8 Oeste 0 928.8 -1.9 83
2018-08-30 04:00:00 19.5 5 Sudeste 25 Sur 0 928.6 -1.4 81
2018-08-30 03:00:00 19.8 14 Sur 23 Sur 0 929.8 0.4 81
2018-08-30 02:00:00 20 6 Sudeste 21 Sudeste 0 930.7 1.5 77
2018-08-30 01:00:00 20.9 16 Sudeste 28 Sudeste 0 930 1.6 75
2018-08-30 00:00:00 22 10 Sur 17 Sudeste 0 929.4 1.9 67
2018-08-29 23:00:00 23.2 9 Sudeste 16 Sur 0 929.2 2.3 62
2018-08-29 22:00:00 24.4 9 Sur 16 Sudeste 0 928.4 1.6 60
2018-08-29 21:00:00 25.6 8 Sudeste 17 Sur 0 927.5 1.4 55
2018-08-29 20:00:00 27.1 10 Sur 31 Sudeste 0 926.9 0.5 46
2018-08-29 19:00:00 29.3 19 Sudeste 35 Este 0 926.8 -0.1 36
2018-08-29 18:00:00 33.1 6 Sudoeste 19 Oeste 0 926.1 -1.3 18
2018-08-29 17:00:00 33.8 14 Oeste 22 Noroeste 0 926.4 -1.5 20
2018-08-29 16:00:00 33.4 9 Noroeste 18 Norte 0 926.9 -1.6 22
2018-08-29 15:00:00 32.1 7 Norte 16 Nordeste 0 927.4 -1.6 26
2018-08-29 14:00:00 31 9 Norte 21 Norte 0 927.9 -1.4 27
2018-08-29 13:00:00 28.3 8 Norte 16 Noroeste 0 928.5 -0.6 38
2018-08-29 12:00:00 25.6 7 Norte 13 Norte 0 929 -0.1 47
2018-08-29 11:00:00 21.6 4 Noroeste 8 Noroeste 0 929.3 0.4 59
2018-08-29 10:00:00 18.3 3 Noroeste 7 Noroeste 0 929.1 0.5 69
2018-08-29 09:00:00 16.3 0 Calma 6 Norte 0 929.1 0.5 75
2018-08-29 08:00:00 15.3 5 Este 9 Sur 0 928.9 0.3 74
2018-08-29 07:00:00 14.8 4 Sur 10 Sudeste 0 928.6 0.1 75
2018-08-29 06:00:00 15.3 7 Sudeste 12 Sudeste 0 928.6 0.1 75
2018-08-29 05:00:00 16.2 7 Sudeste 8 Sur 0 928.6 0 72
2018-08-29 04:00:00 17.1 6 Sur 9 Sudeste 0 928.5 -0.1 70
2018-08-29 03:00:00 17.9 5 Sudeste 8 Sudeste 0 928.5 -0.2 68
2018-08-29 02:00:00 19 4 Sudeste 10 Sudeste 0 928.6 0 66
2018-08-29 01:00:00 20 6 Este 12 Sudeste 0 928.6 0.5 61
2018-08-29 00:00:00 21.1 4 Sudeste 13 Sudeste 0 928.7 1.2 59
2018-08-28 23:00:00 22.6 7 Sudeste 19 Sudeste 0 928.6 1.9 54
2018-08-28 22:00:00 24.2 7 Sudeste 28 Sudeste 0 928.1 1.9 49
2018-08-28 21:00:00 26.3 10 Sudeste 30 Sudeste 0 927.5 1.2 42
2018-08-28 20:00:00 29 7 Sudeste 23 Sudoeste 0 926.7 0.4 33
2018-08-28 19:00:00 32.3 19 Sudeste 34 Sudeste 0 926.2 -0.8 24
2018-08-28 18:00:00 35 18 Sudeste 46 Este 0 926.3 -1.4 18
2018-08-28 17:00:00 34.4 18 Este 31 Este 0 926.3 -2 20
2018-08-28 16:00:00 36.9 11 Sudeste 28 Este 0 927 -2 15
2018-08-28 15:00:00 34.3 8 Este 19 Este 0 927.7 -1.5 21
2018-08-28 14:00:00 32.6 5 Sur 15 Noroeste 0 928.3 -1.2 25
2018-08-28 13:00:00 29.6 7 Noroeste 14 Oeste 0 929 -0.2 32
2018-08-28 12:00:00 26.6 4 Norte 11 Norte 0 929.2 0.3 42
2018-08-28 11:00:00 23.2 6 Norte 10 Norte 0 929.5 1.1 62
2018-08-28 10:00:00 22.5 7 Sudeste 14 Sudeste 0 929.2 0.8 59
2018-08-28 09:00:00 20.6 8 Sudeste 16 Sudeste 0 928.9 0.7 78
2018-08-28 08:00:00 19.9 8 Este 18 Sudeste 0 928.4 -0.1 81
2018-08-28 07:00:00 20.2 11 Sudeste 18 Sudeste 0 928.4 -0.2 82
2018-08-28 06:00:00 20.5 7 Sudeste 16 Sur 0 928.2 -0.6 82
2018-08-28 05:00:00 20.8 10 Sur 21 Sur 0 928.5 -0.6 83
2018-08-28 04:00:00 20.9 5 Sudeste 25 Sudeste 0 928.6 -0.2 82
2018-08-28 03:00:00 21.7 15 Sudeste 26 Sudeste 0 928.8 -0.5 79
2018-08-28 02:00:00 23.4 11 Sudeste 21 Sudeste 0 929.1 -0.5 68
2018-08-28 01:00:00 24.4 6 Sudoeste 35 Sudeste 0 928.8 -0.4 60
2018-08-28 00:00:00 24.1 15 Sudeste 31 Sudeste 0 929.3 1.6 59
2018-08-27 23:00:00 24.2 13 Sudeste 19 Sudeste 0 929.6 2.8 63
2018-08-27 22:00:00 25.7 8 Sur 21 Sudeste 0 929.2 3 53
2018-08-27 21:00:00 26.8 11 Sudeste 33 Sudeste 0 927.7 1.5 37
2018-08-27 20:00:00 29 17 Sudeste 33 Sudeste 0 926.8 0.3 36
2018-08-27 19:00:00 31 18 Sudeste 33 Sudeste 0 926.2 -0.4 33
2018-08-27 18:00:00 34.6 19 Sudeste 30 Sudeste 0 926.2 -0.7 26
2018-08-27 17:00:00 35.6 17 Sudeste 27 Sur 0 926.5 -0.4 24
2018-08-27 16:00:00 36.2 14 Sudeste 29 Sudeste 0 926.6 -0.7 22
2018-08-27 15:00:00 35.6 13 Sudeste 27 Sudeste 0 926.9 -0.8 23
2018-08-27 14:00:00 34.2 17 Sudeste 31 Sudeste 0 926.9 -0.9 28
2018-08-27 13:00:00 32.1 11 Sudeste 24 Sudeste 0 927.3 -0.4 32
2018-08-27 12:00:00 27.8 8 Sur 18 Sudeste 0 927.7 0.1 52
2018-08-27 11:00:00 23.6 12 Sur 25 Sudeste 0 927.8 0.6 70
2018-08-27 10:00:00 20.6 14 Sudeste 26 Sudeste 0 927.7 0.6 84
2018-08-27 09:00:00 16.9 8 Sur 21 Sudeste 0 927.6 0.6 90
2018-08-27 08:00:00 13.6 5 Sudeste 9 Sur 0 927.2 0.1 79
2018-08-27 07:00:00 14.2 7 Sur 9 Sudeste 0 927.1 -0.3 76
2018-08-27 06:00:00 14.8 6 Sur 8 Sur 0 927 -0.5 85
2018-08-27 05:00:00 15.6 4 Sur 6 Sudeste 0 927.1 -0.6 83
2018-08-27 04:00:00 16.7 6 Sudeste 8 Sudeste 0 927.4 -0.3 77
2018-08-27 03:00:00 18.6 5 Sur 10 Este 0 927.5 -0.2 79
2018-08-27 02:00:00 20.1 4 Nordeste 8 Este 0 927.7 0.2 85
2018-08-27 01:00:00 21.1 6 Sudeste 17 Sudeste 0 927.7 0.7 83
2018-08-27 00:00:00 21.7 8 Sur 16 Sudeste 0 927.7 1.6 81
2018-08-26 23:00:00 22.6 10 Sudeste 20 Sur 0 927.5 1.9 75
2018-08-26 22:00:00 23.5 12 Sudeste 28 Sudeste 0 927 1.8 70
2018-08-26 21:00:00 25.4 16 Sudeste 30 Sudeste 0 926.1 1.2 61
2018-08-26 20:00:00 29.8 14 Sudeste 29 Sudeste 0 925.6 0.6 46
2018-08-26 19:00:00 33.3 16 Sudeste 29 Sudeste 0 925.2 -0.3 33
2018-08-26 18:00:00 35.7 7 Noroeste 22 Este 0 924.9 -1.4 20
2018-08-26 17:00:00 36.4 9 Sudeste 21 Sur 0 925 -1.8 17
2018-08-26 16:00:00 36.1 12 Sudeste 24 Sudeste 0 925.5 -1.9 18
2018-08-26 15:00:00 33 5 Nordeste 15 Sudoeste 0 926.3 -1.5 19
2018-08-26 14:00:00 32.4 9 Noroeste 17 Norte 0 926.8 -1.2 20
2018-08-26 13:00:00 29.7 4 Nordeste 13 Norte 0 927.4 -0.2 29
2018-08-26 12:00:00 26.7 3 Sudeste 11 Norte 0 927.8 0.2 43
2018-08-26 11:00:00 23.2 4 Nordeste 12 Norte 0 928 0.7 55
2018-08-26 10:00:00 21.1 6 Este 15 Sudeste 0 927.6 1.1 66
2018-08-26 09:00:00 17.7 4 Sudeste 11 Este 0 927.6 1.6 80
2018-08-26 08:00:00 17.4 6 Este 16 Este 0 927.3 1.4 83
2018-08-26 07:00:00 18 8 Este 15 Este 0 926.5 0.5 77
2018-08-26 06:00:00 19 11 Sudeste 21 Sudeste 0 926 -0.3 73
2018-08-26 05:00:00 16.7 10 Sudeste 14 Sudeste 0 925.9 -0.4 58
2018-08-26 04:00:00 16.8 9 Sudeste 11 Sudeste 0 926 -0.3 64
2018-08-26 03:00:00 18.4 3 Sudoeste 5 Oeste 0 926.3 0.2 60
2018-08-26 02:00:00 20.8 4 Oeste 9 Noroeste 0 926.3 0.3 55
2018-08-26 01:00:00 21.3 3 Sur 10 Sudeste 0 926.3 0.8 48
2018-08-26 00:00:00 22.3 9 Sudeste 14 Sudeste 0 926.1 1.5 50
2018-08-25 23:00:00 24.1 10 Sudeste 17 Sudeste 0 926 1.8 48
2018-08-25 22:00:00 26.4 9 Sudeste 19 Sudeste 0 925.5 1.4 39
2018-08-25 21:00:00 29.7 6 Oeste 21 Noroeste 0 924.6 0.5 24
2018-08-25 20:00:00 31.7 12 Noroeste 24 Noroeste 0 924.2 -0.2 22
2018-08-25 19:00:00 33.4 17 Oeste 32 Oeste 0 924.1 -0.9 19
2018-08-25 18:00:00 34.8 10 Oeste 32 Oeste 0 924.1 -1.3 16
2018-08-25 17:00:00 34.8 13 Noroeste 32 Noroeste 0 924.4 -1.6 16
2018-08-25 16:00:00 34.6 17 Noroeste 27 Oeste 0 925 -1.9 15
2018-08-25 15:00:00 33.3 5 Norte 33 Noroeste 0 925.4 -2.3 19
2018-08-25 14:00:00 33.5 10 Noroeste 27 Noroeste 0 926 -2 20
2018-08-25 13:00:00 30.8 8 Noroeste 15 Norte 0 926.9 -1 29
2018-08-25 12:00:00 26.9 4 Noroeste 10 Nordeste 0 927.7 -0.2 37
2018-08-25 11:00:00 22.8 4 Norte 9 Noroeste 0 928 0.3 47
2018-08-25 10:00:00 19.5 3 Noroeste 7 Norte 0 927.9 0.5 57
2018-08-25 09:00:00 16.7 2 Sudeste 3 Sur 0 927.9 0.5 68
2018-08-25 08:00:00 15.7 0 Calma 10 Sudeste 0 927.7 0.1 70
2018-08-25 07:00:00 15.5 8 Sudeste 13 Sudeste 0 927.4 -0.3 68
2018-08-25 06:00:00 16.2 0 Calma 10 Sudeste 0 927.4 -0.7 67
2018-08-25 05:00:00 16.7 6 Sur 9 Sudeste 0 927.6 -0.8 63
2018-08-25 04:00:00 16.9 8 Sudeste 9 Sudeste 0 927.7 -0.8 60
2018-08-25 03:00:00 18.2 4 Sur 9 Sur 0 928.1 -0.2 59
2018-08-25 02:00:00 19.8 4 Sudeste 7 Sudeste 0 928.4 0.1 56
2018-08-25 01:00:00 21.9 3 Noroeste 7 Norte 0 928.5 0.4 50
2018-08-25 00:00:00 23.3 5 Sur 13 Sur 0 928.3 0.9 44
2018-08-24 23:00:00 24.4 10 Sur 14 Sur 0 928.3 1.3 41
2018-08-24 22:00:00 26.1 0 Calma 19 Sudeste 0 928.1 1 38
2018-08-24 21:00:00 28.9 9 Sudeste 18 Sudeste 0 927.4 0.2 29
2018-08-24 20:00:00 32.7 10 Oeste 19 Oeste 0 927 -0.6 14
2018-08-24 19:00:00 33.9 12 Oeste 19 Norte 0 927.1 -1.3 14
2018-08-24 18:00:00 34.2 5 Noroeste 18 Noroeste 0 927.2 -1.8 16
2018-08-24 17:00:00 33.8 4 Nordeste 24 Norte 0 927.6 -2 19
2018-08-24 16:00:00 33.8 6 Norte 17 Noroeste 0 928.4 -1.7 17
2018-08-24 15:00:00 32.9 8 Norte 17 Norte 0 929 -1.5 22
2018-08-24 14:00:00 30.8 6 Nordeste 17 Norte 0 929.6 -1.1 25
2018-08-24 13:00:00 28.3 5 Norte 12 Noroeste 0 930.1 -0.5 39
2018-08-24 12:00:00 24.6 3 Norte 10 Norte 0 930.5 0.3 49
2018-08-24 11:00:00 20.8 3 Noroeste 7 Norte 0 930.7 0.8 65
2018-08-24 10:00:00 17.8 4 Noroeste 6 Noroeste 0 930.6 1 75
2018-08-24 09:00:00 15.5 3 Oeste 6 Oeste 0 930.2 0.6 88
2018-08-24 08:00:00 13.6 4 Este 9 Sudeste 0 929.9 0.3 90
2018-08-24 07:00:00 14.1 6 Sur 9 Sur 0 929.6 0.1 90
2018-08-24 06:00:00 14.9 5 Sur 6 Sur 0 929.6 0.2 87
2018-08-24 05:00:00 16.1 4 Norte 11 Oeste 0 929.6 -1.3 84
2018-08-24 04:00:00 16.5 5 Noroeste 13 Noroeste 0 929.5 -2.2 79
2018-08-24 03:00:00 16.7 8 Sur 12 Sur 0 929.4 -1.9 79
2018-08-24 02:00:00 17.9 6 Sudoeste 13 Norte 0 930.9 0 78
2018-08-24 01:00:00 18.4 16 Norte 25 Norte 0 931.7 1 79
2018-08-24 00:00:00 19.4 8 Sudoeste 12 Sudoeste 0 931.3 1 72
2018-08-23 23:00:00 19.5 3 Nordeste 9 Norte 0 930.9 0.9 72
2018-08-23 22:00:00 21 8 Sudoeste 21 Nordeste 0 930.7 1.4 63
2018-08-23 21:00:00 22.9 6 Norte 15 Norte 0 930.3 1.2 55
2018-08-23 20:00:00 24.1 7 Nordeste 20 Nordeste 0 930 2.6 47
2018-08-23 19:00:00 25.3 9 Sudeste 34 Sudeste 0.6 929.3 1.6 51
2018-08-23 18:00:00 24.8 17 Sudeste 36 Este 0 929.1 0.9 48
2018-08-23 17:00:00 32.2 8 Nordeste 31 Norte 0 927.4 -1.4 25
2018-08-23 16:00:00 31.4 7 Norte 20 Noroeste 0 927.7 -1.7 21
2018-08-23 15:00:00 33 6 Nordeste 17 Noroeste 0 928.2 -1.5 22
2018-08-23 14:00:00 31 8 Noroeste 22 Oeste 0 928.8 -1.1 26
2018-08-23 13:00:00 29.5 11 Noroeste 20 Noroeste 0 929.4 -0.2 28
2018-08-23 12:00:00 26.2 2 Este 11 Norte 0 929.7 0.2 37
2018-08-23 11:00:00 22.7 5 Norte 10 Norte 0 929.9 0.7 47
2018-08-23 10:00:00 19.7 3 Nordeste 6 Norte 0 929.6 0.8 56
2018-08-23 09:00:00 17.2 0 Calma 6 Oeste 0 929.5 0.6 70
2018-08-23 08:00:00 14.7 0 Calma 6 Oeste 0 929.2 0.1 73
2018-08-23 07:00:00 15.1 4 Noroeste 6 Oeste 0 928.8 -0.5 71
2018-08-23 06:00:00 15.5 6 Sudeste 10 Sur 0 928.9 -0.8 63
2018-08-23 05:00:00 15.8 8 Sudeste 12 Sudeste 0 929.1 -0.8 61
2018-08-23 04:00:00 16.7 8 Sudeste 10 Sur 0 929.3 -0.5 59
2018-08-23 03:00:00 17.8 7 Sur 11 Sur 0 929.7 0.1 61
2018-08-23 02:00:00 19.2 8 Sur 10 Sudoeste 0 929.9 0.4 56
2018-08-23 01:00:00 20.1 7 Sur 12 Sudeste 0 929.8 0.9 57
2018-08-23 00:00:00 21.4 7 Sudeste 14 Sur 0 929.6 1.6 55